sensor_id;sensor_type;location;lat;lon;timestamp;pressure;altitude;pressure_sealevel;temperature;humidity
63321;BME280;49449;48.800;9.534;2023-04-01T00:00:30;97238.09;;;6.72;47.38
63321;BME280;49449;48.800;9.534;2023-04-01T00:02:58;97224.88;;;6.67;47.38
63321;BME280;49449;48.800;9.534;2023-04-01T00:05:26;97220.69;;;6.54;48.30
63321;BME280;49449;48.800;9.534;2023-04-01T00:07:54;97217.78;;;6.68;47.37
63321;BME280;49449;48.800;9.534;2023-04-01T00:10:22;97211.97;;;6.94;47.16
63321;BME280;49449;48.800;9.534;2023-04-01T00:12:49;97209.75;;;6.74;47.40
63321;BME280;49449;48.800;9.534;2023-04-01T00:15:17;97215.59;;;6.36;48.28
63321;BME280;49449;48.800;9.534;2023-04-01T00:17:46;97198.41;;;6.57;47.83
63321;BME280;49449;48.800;9.534;2023-04-01T00:20:14;97212.50;;;6.51;47.94
63321;BME280;49449;48.800;9.534;2023-04-01T00:22:42;97218.41;;;6.46;48.16
63321;BME280;49449;48.800;9.534;2023-04-01T00:25:10;97201.78;;;6.69;48.04
63321;BME280;49449;48.800;9.534;2023-04-01T00:27:38;97211.53;;;6.57;48.30
63321;BME280;49449;48.800;9.534;2023-04-01T00:30:07;97212.28;;;6.69;47.96
63321;BME280;49449;48.800;9.534;2023-04-01T00:32:35;97208.28;;;6.78;47.89
63321;BME280;49449;48.800;9.534;2023-04-01T00:35:05;97202.28;;;6.25;48.99
63321;BME280;49449;48.800;9.534;2023-04-01T00:37:34;97224.31;;;6.65;48.44
63321;BME280;49449;48.800;9.534;2023-04-01T00:40:04;97214.28;;;7.08;47.11
63321;BME280;49449;48.800;9.534;2023-04-01T00:42:33;97199.13;;;6.81;47.44
63321;BME280;49449;48.800;9.534;2023-04-01T00:45:23;97218.56;;;6.97;47.19
63321;BME280;49449;48.800;9.534;2023-04-01T00:47:53;97205.84;;;6.60;48.04
63321;BME280;49449;48.800;9.534;2023-04-01T00:50:24;97214.41;;;7.30;46.76
63321;BME280;49449;48.800;9.534;2023-04-01T00:52:52;97213.75;;;7.39;46.07
63321;BME280;49449;48.800;9.534;2023-04-01T00:55:21;97215.03;;;7.54;45.89
63321;BME280;49449;48.800;9.534;2023-04-01T00:57:51;97211.38;;;7.21;46.59
63321;BME280;49449;48.800;9.534;2023-04-01T01:00:20;97205.22;;;6.98;46.86
63321;BME280;49449;48.800;9.534;2023-04-01T01:02:49;97209.75;;;6.74;47.57
63321;BME280;49449;48.800;9.534;2023-04-01T01:05:21;97210.56;;;7.03;47.08
63321;BME280;49449;48.800;9.534;2023-04-01T01:08:01;97216.63;;;6.46;48.29
63321;BME280;49449;48.800;9.534;2023-04-01T01:10:33;97212.84;;;6.42;48.64
63321;BME280;49449;48.800;9.534;2023-04-01T01:13:07;97226.41;;;6.51;48.15
63321;BME280;49449;48.800;9.534;2023-04-01T01:15:43;97221.69;;;6.65;48.14
63321;BME280;49449;48.800;9.534;2023-04-01T01:18:19;97222.16;;;6.91;47.77
63321;BME280;49449;48.800;9.534;2023-04-01T01:21:09;97226.88;;;7.06;47.34
63321;BME280;49449;48.800;9.534;2023-04-01T01:24:17;97217.31;;;6.99;47.96
63321;BME280;49449;48.800;9.534;2023-04-01T01:27:03;97226.38;;;6.92;48.14
63321;BME280;49449;48.800;9.534;2023-04-01T01:29:50;97208.88;;;6.69;49.11
63321;BME280;49449;48.800;9.534;2023-04-01T01:35:24;97215.66;;;7.10;47.91
63321;BME280;49449;48.800;9.534;2023-04-01T01:37:56;97212.97;;;7.39;46.86
63321;BME280;49449;48.800;9.534;2023-04-01T01:40:27;97196.00;;;7.13;47.49
63321;BME280;49449;48.800;9.534;2023-04-01T01:42:58;97225.03;;;7.06;47.52
63321;BME280;49449;48.800;9.534;2023-04-01T01:45:27;97218.38;;;7.32;47.14
63321;BME280;49449;48.800;9.534;2023-04-01T01:47:57;97206.19;;;7.09;47.46
63321;BME280;49449;48.800;9.534;2023-04-01T01:50:28;97219.25;;;7.38;46.89
63321;BME280;49449;48.800;9.534;2023-04-01T01:53:03;97216.84;;;7.36;46.68
63321;BME280;49449;48.800;9.534;2023-04-01T01:55:33;97216.38;;;7.06;47.40
63321;BME280;49449;48.800;9.534;2023-04-01T01:58:05;97217.19;;;6.77;47.98
63321;BME280;49449;48.800;9.534;2023-04-01T02:00:35;97221.66;;;7.39;46.73
63321;BME280;49449;48.800;9.534;2023-04-01T02:03:04;97221.00;;;7.32;47.01
63321;BME280;49449;48.800;9.534;2023-04-01T02:05:34;97230.81;;;7.37;46.95
63321;BME280;49449;48.800;9.534;2023-04-01T02:08:06;97224.19;;;7.34;46.83
63321;BME280;49449;48.800;9.534;2023-04-01T02:10:37;97226.03;;;7.34;47.22
63321;BME280;49449;48.800;9.534;2023-04-01T02:13:13;97225.50;;;7.66;46.56
63321;BME280;49449;48.800;9.534;2023-04-01T02:15:47;97212.97;;;7.56;46.55
63321;BME280;49449;48.800;9.534;2023-04-01T02:18:16;97227.31;;;7.48;46.80
63321;BME280;49449;48.800;9.534;2023-04-01T02:20:49;97217.97;;;7.57;46.85
63321;BME280;49449;48.800;9.534;2023-04-01T02:23:18;97217.75;;;7.76;46.01
63321;BME280;49449;48.800;9.534;2023-04-01T02:25:47;97216.28;;;7.63;46.32
63321;BME280;49449;48.800;9.534;2023-04-01T02:28:16;97225.97;;;7.63;46.05
63321;BME280;49449;48.800;9.534;2023-04-01T02:30:48;97230.47;;;7.50;45.88
63321;BME280;49449;48.800;9.534;2023-04-01T02:33:18;97242.34;;;7.36;45.69
63321;BME280;49449;48.800;9.534;2023-04-01T02:35:48;97226.59;;;7.19;45.98
63321;BME280;49449;48.800;9.534;2023-04-01T02:38:15;97229.69;;;7.33;45.77
63321;BME280;49449;48.800;9.534;2023-04-01T02:40:46;97217.78;;;7.13;45.84
63321;BME280;49449;48.800;9.534;2023-04-01T02:43:14;97235.25;;;7.19;45.99
63321;BME280;49449;48.800;9.534;2023-04-01T02:45:43;97224.59;;;7.43;45.27
63321;BME280;49449;48.800;9.534;2023-04-01T02:48:10;97237.03;;;7.48;45.09
63321;BME280;49449;48.800;9.534;2023-04-01T02:50:39;97231.19;;;7.29;45.17
63321;BME280;49449;48.800;9.534;2023-04-01T02:53:08;97225.41;;;7.44;45.29
63321;BME280;49449;48.800;9.534;2023-04-01T02:55:36;97226.50;;;7.14;45.24
63321;BME280;49449;48.800;9.534;2023-04-01T02:58:04;97219.53;;;7.08;45.81
63321;BME280;49449;48.800;9.534;2023-04-01T03:00:32;97224.03;;;6.78;46.19
63321;BME280;49449;48.800;9.534;2023-04-01T03:02:59;97236.84;;;6.75;46.49
63321;BME280;49449;48.800;9.534;2023-04-01T03:05:27;97236.66;;;6.81;46.22
63321;BME280;49449;48.800;9.534;2023-04-01T03:07:55;97226.41;;;6.39;47.08
63321;BME280;49449;48.800;9.534;2023-04-01T03:10:24;97218.69;;;6.73;46.09
63321;BME280;49449;48.800;9.534;2023-04-01T03:12:52;97213.75;;;7.06;45.60
63321;BME280;49449;48.800;9.534;2023-04-01T03:15:20;97227.19;;;7.09;45.35
63321;BME280;49449;48.800;9.534;2023-04-01T03:17:48;97215.44;;;7.12;45.32
63321;BME280;49449;48.800;9.534;2023-04-01T03:20:16;97217.22;;;6.65;46.48
63321;BME280;49449;48.800;9.534;2023-04-01T03:22:43;97220.13;;;6.52;46.40
63321;BME280;49449;48.800;9.534;2023-04-01T03:25:12;97229.13;;;6.85;45.45
63321;BME280;49449;48.800;9.534;2023-04-01T03:27:41;97227.72;;;6.94;45.51
63321;BME280;49449;48.800;9.534;2023-04-01T03:30:10;97234.66;;;6.07;47.35
63321;BME280;49449;48.800;9.534;2023-04-01T03:32:37;97233.63;;;6.73;45.88
63321;BME280;49449;48.800;9.534;2023-04-01T03:35:06;97252.72;;;6.68;45.57
63321;BME280;49449;48.800;9.534;2023-04-01T03:37:36;97240.34;;;6.80;45.18
63321;BME280;49449;48.800;9.534;2023-04-01T03:40:05;97238.16;;;6.89;45.16
63321;BME280;49449;48.800;9.534;2023-04-01T03:42:33;97233.41;;;7.03;44.91
63321;BME280;49449;48.800;9.534;2023-04-01T03:45:04;97239.31;;;6.81;45.65
63321;BME280;49449;48.800;9.534;2023-04-01T03:47:32;97240.59;;;6.67;46.04
63321;BME280;49449;48.800;9.534;2023-04-01T03:49:59;97248.69;;;6.77;45.79
63321;BME280;49449;48.800;9.534;2023-04-01T03:52:27;97245.72;;;6.74;45.80
63321;BME280;49449;48.800;9.534;2023-04-01T03:54:55;97246.13;;;6.94;45.12
63321;BME280;49449;48.800;9.534;2023-04-01T03:57:23;97245.47;;;7.04;44.81
63321;BME280;49449;48.800;9.534;2023-04-01T03:59:51;97236.91;;;7.09;44.67
63321;BME280;49449;48.800;9.534;2023-04-01T04:02:20;97238.56;;;7.15;44.52
63321;BME280;49449;48.800;9.534;2023-04-01T04:04:48;97241.97;;;6.98;44.84
63321;BME280;49449;48.800;9.534;2023-04-01T04:07:15;97239.22;;;7.22;44.50
63321;BME280;49449;48.800;9.534;2023-04-01T04:09:43;97238.66;;;7.03;44.62
63321;BME280;49449;48.800;9.534;2023-04-01T04:12:11;97219.25;;;6.46;45.66
63321;BME280;49449;48.800;9.534;2023-04-01T04:14:39;97240.91;;;6.30;46.19
63321;BME280;49449;48.800;9.534;2023-04-01T04:17:06;97231.13;;;6.25;46.13
63321;BME280;49449;48.800;9.534;2023-04-01T04:19:39;97224.50;;;6.23;45.96
63321;BME280;49449;48.800;9.534;2023-04-01T04:22:07;97230.84;;;6.51;45.56
63321;BME280;49449;48.800;9.534;2023-04-01T04:24:35;97229.19;;;6.09;46.02
63321;BME280;49449;48.800;9.534;2023-04-01T04:27:03;97236.25;;;6.08;45.92
63321;BME280;49449;48.800;9.534;2023-04-01T04:29:31;97237.97;;;6.03;46.15
63321;BME280;49449;48.800;9.534;2023-04-01T04:31:59;97229.63;;;6.41;44.97
63321;BME280;49449;48.800;9.534;2023-04-01T04:34:27;97230.56;;;6.12;45.82
63321;BME280;49449;48.800;9.534;2023-04-01T04:36:56;97222.31;;;6.20;45.79
63321;BME280;49449;48.800;9.534;2023-04-01T04:39:24;97229.41;;;6.19;45.96
63321;BME280;49449;48.800;9.534;2023-04-01T04:41:52;97223.28;;;6.02;46.17
63321;BME280;49449;48.800;9.534;2023-04-01T04:44:19;97225.31;;;6.00;46.45
63321;BME280;49449;48.800;9.534;2023-04-01T04:46:47;97228.38;;;6.20;45.89
63321;BME280;49449;48.800;9.534;2023-04-01T04:49:16;97230.47;;;5.95;46.57
63321;BME280;49449;48.800;9.534;2023-04-01T04:51:43;97224.81;;;6.26;46.02
63321;BME280;49449;48.800;9.534;2023-04-01T04:54:12;97232.94;;;6.25;46.05
63321;BME280;49449;48.800;9.534;2023-04-01T04:56:40;97223.38;;;6.07;46.70
63321;BME280;49449;48.800;9.534;2023-04-01T04:59:08;97223.88;;;5.92;46.57
63321;BME280;49449;48.800;9.534;2023-04-01T05:01:36;97221.81;;;6.06;46.61
63321;BME280;49449;48.800;9.534;2023-04-01T05:04:03;97227.13;;;6.35;45.74
63321;BME280;49449;48.800;9.534;2023-04-01T05:06:31;97225.56;;;5.98;46.65
63321;BME280;49449;48.800;9.534;2023-04-01T05:08:59;97227.38;;;5.50;47.53
63321;BME280;49449;48.800;9.534;2023-04-01T05:11:28;97229.09;;;5.92;46.74
63321;BME280;49449;48.800;9.534;2023-04-01T05:13:56;97217.00;;;5.79;47.42
63321;BME280;49449;48.800;9.534;2023-04-01T05:16:24;97218.84;;;5.79;47.31
63321;BME280;49449;48.800;9.534;2023-04-01T05:18:51;97225.78;;;5.97;46.96
63321;BME280;49449;48.800;9.534;2023-04-01T05:21:19;97226.81;;;5.84;47.52
63321;BME280;49449;48.800;9.534;2023-04-01T05:23:47;97217.69;;;5.86;47.28
63321;BME280;49449;48.800;9.534;2023-04-01T05:26:14;97219.19;;;6.06;46.65
63321;BME280;49449;48.800;9.534;2023-04-01T05:28:43;97218.28;;;5.77;47.65
63321;BME280;49449;48.800;9.534;2023-04-01T05:31:11;97217.13;;;5.96;47.06
63321;BME280;49449;48.800;9.534;2023-04-01T05:33:39;97213.59;;;6.02;46.95
63321;BME280;49449;48.800;9.534;2023-04-01T05:36:09;97216.91;;;6.09;46.72
63321;BME280;49449;48.800;9.534;2023-04-01T05:38:37;97205.50;;;5.92;47.37
63321;BME280;49449;48.800;9.534;2023-04-01T05:41:05;97205.81;;;6.07;46.72
63321;BME280;49449;48.800;9.534;2023-04-01T05:43:35;97219.63;;;6.03;46.74
63321;BME280;49449;48.800;9.534;2023-04-01T05:46:04;97210.47;;;6.17;46.85
63321;BME280;49449;48.800;9.534;2023-04-01T05:48:32;97201.44;;;6.25;46.47
63321;BME280;49449;48.800;9.534;2023-04-01T05:51:01;97198.41;;;6.57;45.85
63321;BME280;49449;48.800;9.534;2023-04-01T05:53:29;97199.81;;;6.48;45.61
63321;BME280;49449;48.800;9.534;2023-04-01T05:55:56;97207.63;;;6.71;45.24
63321;BME280;49449;48.800;9.534;2023-04-01T05:58:24;97208.31;;;6.38;45.82
63321;BME280;49449;48.800;9.534;2023-04-01T06:01:00;97204.09;;;6.37;45.45
63321;BME280;49449;48.800;9.534;2023-04-01T06:03:35;97195.13;;;6.50;45.90
63321;BME280;49449;48.800;9.534;2023-04-01T06:06:03;97210.66;;;6.51;45.37
63321;BME280;49449;48.800;9.534;2023-04-01T06:08:31;97206.53;;;6.55;45.27
63321;BME280;49449;48.800;9.534;2023-04-01T06:11:08;97198.91;;;6.54;45.04
63321;BME280;49449;48.800;9.534;2023-04-01T06:14:07;97212.09;;;6.18;45.78
63321;BME280;49449;48.800;9.534;2023-04-01T06:16:45;97200.44;;;6.26;45.99
63321;BME280;49449;48.800;9.534;2023-04-01T06:19:31;97204.88;;;6.37;45.38
63321;BME280;49449;48.800;9.534;2023-04-01T06:22:35;97205.25;;;6.70;44.94
63321;BME280;49449;48.800;9.534;2023-04-01T06:25:23;97194.31;;;6.61;44.83
63321;BME280;49449;48.800;9.534;2023-04-01T06:28:04;97208.47;;;6.60;44.78
63321;BME280;49449;48.800;9.534;2023-04-01T06:30:40;97206.56;;;7.01;44.17
63321;BME280;49449;48.800;9.534;2023-04-01T06:33:20;97204.75;;;7.01;43.43
63321;BME280;49449;48.800;9.534;2023-04-01T06:39:19;97208.47;;;7.06;43.62
63321;BME280;49449;48.800;9.534;2023-04-01T06:42:15;97210.03;;;7.35;43.06
63321;BME280;49449;48.800;9.534;2023-04-01T06:44:56;97212.59;;;7.47;43.06
63321;BME280;49449;48.800;9.534;2023-04-01T06:47:36;97213.31;;;7.59;42.54
63321;BME280;49449;48.800;9.534;2023-04-01T06:50:19;97202.38;;;7.34;43.04
63321;BME280;49449;48.800;9.534;2023-04-01T06:52:55;97210.34;;;7.56;42.53
63321;BME280;49449;48.800;9.534;2023-04-01T06:55:32;97202.69;;;7.88;42.05
63321;BME280;49449;48.800;9.534;2023-04-01T06:58:06;97206.78;;;8.01;41.73
63321;BME280;49449;48.800;9.534;2023-04-01T07:00:40;97197.91;;;7.51;42.41
63321;BME280;49449;48.800;9.534;2023-04-01T07:03:18;97199.91;;;7.78;42.21
63321;BME280;49449;48.800;9.534;2023-04-01T07:05:47;97198.06;;;7.45;42.72
63321;BME280;49449;48.800;9.534;2023-04-01T07:08:21;97205.31;;;7.37;43.15
63321;BME280;49449;48.800;9.534;2023-04-01T07:10:54;97202.84;;;7.48;42.88
63321;BME280;49449;48.800;9.534;2023-04-01T07:13:26;97207.31;;;7.64;42.35
63321;BME280;49449;48.800;9.534;2023-04-01T07:16:03;97193.13;;;7.82;42.01
63321;BME280;49449;48.800;9.534;2023-04-01T07:18:37;97202.22;;;7.91;41.76
63321;BME280;49449;48.800;9.534;2023-04-01T07:21:11;97201.69;;;7.94;41.77
63321;BME280;49449;48.800;9.534;2023-04-01T07:23:44;97205.56;;;7.53;42.61
63321;BME280;49449;48.800;9.534;2023-04-01T07:26:19;97201.25;;;7.81;42.26
63321;BME280;49449;48.800;9.534;2023-04-01T07:28:48;97193.59;;;7.45;42.79
63321;BME280;49449;48.800;9.534;2023-04-01T07:31:37;97196.88;;;7.35;43.08
63321;BME280;49449;48.800;9.534;2023-04-01T07:34:12;97198.91;;;7.62;42.55
63321;BME280;49449;48.800;9.534;2023-04-01T07:36:47;97198.72;;;6.72;43.85
63321;BME280;49449;48.800;9.534;2023-04-01T07:39:25;97201.72;;;6.93;43.89
63321;BME280;49449;48.800;9.534;2023-04-01T07:42:02;97207.38;;;7.18;43.93
63321;BME280;49449;48.800;9.534;2023-04-01T07:44:40;97212.28;;;7.60;42.75
63321;BME280;49449;48.800;9.534;2023-04-01T07:47:23;97204.53;;;7.88;42.51
63321;BME280;49449;48.800;9.534;2023-04-01T07:50:05;97218.38;;;7.83;42.47
63321;BME280;49449;48.800;9.534;2023-04-01T07:52:39;97216.28;;;8.02;41.91
63321;BME280;49449;48.800;9.534;2023-04-01T07:55:14;97208.91;;;7.82;42.71
63321;BME280;49449;48.800;9.534;2023-04-01T07:57:49;97212.25;;;8.16;41.62
63321;BME280;49449;48.800;9.534;2023-04-01T08:00:24;97210.59;;;8.32;41.48
63321;BME280;49449;48.800;9.534;2023-04-01T08:03:04;97209.81;;;8.32;41.33
63321;BME280;49449;48.800;9.534;2023-04-01T08:05:41;97208.41;;;8.46;41.00
63321;BME280;49449;48.800;9.534;2023-04-01T08:08:19;97206.06;;;8.50;41.23
63321;BME280;49449;48.800;9.534;2023-04-01T08:10:49;97207.16;;;8.54;41.23
63321;BME280;49449;48.800;9.534;2023-04-01T08:13:30;97199.63;;;8.63;41.02
63321;BME280;49449;48.800;9.534;2023-04-01T08:16:08;97200.84;;;8.77;40.70
63321;BME280;49449;48.800;9.534;2023-04-01T08:18:44;97204.41;;;8.66;40.86
63321;BME280;49449;48.800;9.534;2023-04-01T08:21:17;97205.13;;;8.61;40.86
63321;BME280;49449;48.800;9.534;2023-04-01T08:23:48;97207.81;;;8.66;40.95
63321;BME280;49449;48.800;9.534;2023-04-01T08:26:26;97218.09;;;8.41;41.20
63321;BME280;49449;48.800;9.534;2023-04-01T08:29:02;97216.19;;;8.36;41.72
63321;BME280;49449;48.800;9.534;2023-04-01T08:31:36;97207.53;;;8.63;41.07
63321;BME280;49449;48.800;9.534;2023-04-01T08:34:10;97207.28;;;8.64;41.07
63321;BME280;49449;48.800;9.534;2023-04-01T08:36:43;97207.09;;;8.49;41.28
63321;BME280;49449;48.800;9.534;2023-04-01T08:39:16;97221.03;;;8.44;41.20
63321;BME280;49449;48.800;9.534;2023-04-01T08:42:02;97221.75;;;8.40;41.45
63321;BME280;49449;48.800;9.534;2023-04-01T08:48:07;97218.06;;;7.96;43.01
63321;BME280;49449;48.800;9.534;2023-04-01T08:53:46;97222.41;;;8.30;42.49
63321;BME280;49449;48.800;9.534;2023-04-01T08:56:19;97226.59;;;8.48;42.34
63321;BME280;49449;48.800;9.534;2023-04-01T08:58:59;97213.97;;;8.50;42.01
63321;BME280;49449;48.800;9.534;2023-04-01T09:01:54;97218.69;;;8.48;42.10
63321;BME280;49449;48.800;9.534;2023-04-01T09:04:32;97223.69;;;8.71;42.37
63321;BME280;49449;48.800;9.534;2023-04-01T09:07:16;97240.72;;;8.42;43.38
63321;BME280;49449;48.800;9.534;2023-04-01T09:13:10;97234.06;;;7.95;46.33
63321;BME280;49449;48.800;9.534;2023-04-01T09:16:13;97220.25;;;8.05;45.90
63321;BME280;49449;48.800;9.534;2023-04-01T09:18:59;97222.66;;;7.89;46.27
63321;BME280;49449;48.800;9.534;2023-04-01T09:21:47;97230.84;;;8.10;46.42
63321;BME280;49449;48.800;9.534;2023-04-01T09:24:38;97221.25;;;8.43;45.73
63321;BME280;49449;48.800;9.534;2023-04-01T09:27:14;97228.75;;;8.12;46.42
63321;BME280;49449;48.800;9.534;2023-04-01T09:30:17;97232.47;;;7.77;47.46
63321;BME280;49449;48.800;9.534;2023-04-01T09:33:11;97234.25;;;8.10;46.80
63321;BME280;49449;48.800;9.534;2023-04-01T09:35:46;97227.34;;;8.04;46.57
63321;BME280;49449;48.800;9.534;2023-04-01T09:38:28;97235.63;;;8.35;46.18
63321;BME280;49449;48.800;9.534;2023-04-01T09:40:58;97234.94;;;8.23;45.91
63321;BME280;49449;48.800;9.534;2023-04-01T09:43:39;97227.06;;;8.23;46.07
63321;BME280;49449;48.800;9.534;2023-04-01T09:46:20;97232.63;;;8.04;46.00
63321;BME280;49449;48.800;9.534;2023-04-01T09:49:11;97240.41;;;8.16;46.00
63321;BME280;49449;48.800;9.534;2023-04-01T09:51:57;97236.00;;;8.22;46.05
63321;BME280;49449;48.800;9.534;2023-04-01T09:54:45;97240.13;;;7.95;46.80
63321;BME280;49449;48.800;9.534;2023-04-01T10:00:55;97242.13;;;8.27;45.30
63321;BME280;49449;48.800;9.534;2023-04-01T10:16:51;97251.78;;;8.44;45.69
63321;BME280;49449;48.800;9.534;2023-04-01T10:22:59;97247.84;;;8.02;47.23
63321;BME280;49449;48.800;9.534;2023-04-01T10:25:49;97245.16;;;8.19;47.21
63321;BME280;49449;48.800;9.534;2023-04-01T10:28:38;97251.97;;;8.15;46.56
63321;BME280;49449;48.800;9.534;2023-04-01T10:31:32;97246.88;;;8.08;47.16
63321;BME280;49449;48.800;9.534;2023-04-01T10:34:59;97251.47;;;8.40;46.93
63321;BME280;49449;48.800;9.534;2023-04-01T10:38:01;97250.00;;;8.49;46.17
63321;BME280;49449;48.800;9.534;2023-04-01T10:40:53;97255.50;;;7.70;46.67
63321;BME280;49449;48.800;9.534;2023-04-01T10:44:03;97254.63;;;8.37;46.73
63321;BME280;49449;48.800;9.534;2023-04-01T10:53:00;97251.25;;;8.20;46.80
63321;BME280;49449;48.800;9.534;2023-04-01T10:56:02;97244.50;;;8.29;46.67
63321;BME280;49449;48.800;9.534;2023-04-01T11:08:04;97249.59;;;8.35;46.53
63321;BME280;49449;48.800;9.534;2023-04-01T11:11:15;97261.69;;;8.14;46.64
63321;BME280;49449;48.800;9.534;2023-04-01T11:14:11;97257.28;;;7.81;47.05
63321;BME280;49449;48.800;9.534;2023-04-01T11:17:03;97259.91;;;7.81;47.84
63321;BME280;49449;48.800;9.534;2023-04-01T11:19:50;97257.66;;;7.73;47.43
63321;BME280;49449;48.800;9.534;2023-04-01T11:29:11;97265.72;;;7.83;47.72
63321;BME280;49449;48.800;9.534;2023-04-01T11:31:58;97264.06;;;7.60;48.85
63321;BME280;49449;48.800;9.534;2023-04-01T11:34:41;97257.19;;;7.76;48.29
63321;BME280;49449;48.800;9.534;2023-04-01T11:37:21;97264.88;;;8.00;47.91
63321;BME280;49449;48.800;9.534;2023-04-01T11:40:02;97265.44;;;8.02;47.94
63321;BME280;49449;48.800;9.534;2023-04-01T11:42:40;97267.88;;;7.86;47.60
63321;BME280;49449;48.800;9.534;2023-04-01T11:45:19;97276.41;;;7.31;48.10
63321;BME280;49449;48.800;9.534;2023-04-01T11:48:19;97280.19;;;7.86;48.00
63321;BME280;49449;48.800;9.534;2023-04-01T11:51:13;97273.38;;;7.85;47.34
63321;BME280;49449;48.800;9.534;2023-04-01T11:53:53;97272.91;;;7.88;47.11
63321;BME280;49449;48.800;9.534;2023-04-01T11:56:34;97271.22;;;7.98;46.82
63321;BME280;49449;48.800;9.534;2023-04-01T12:02:07;97281.00;;;8.03;47.35
63321;BME280;49449;48.800;9.534;2023-04-01T12:04:46;97285.06;;;8.11;47.24
63321;BME280;49449;48.800;9.534;2023-04-01T12:07:27;97286.63;;;8.29;46.36
63321;BME280;49449;48.800;9.534;2023-04-01T12:10:02;97285.88;;;8.33;46.45
63321;BME280;49449;48.800;9.534;2023-04-01T12:12:38;97286.22;;;8.20;46.10
63321;BME280;49449;48.800;9.534;2023-04-01T12:15:21;97284.38;;;8.38;45.83
63321;BME280;49449;48.800;9.534;2023-04-01T12:17:58;97279.22;;;8.48;45.32
63321;BME280;49449;48.800;9.534;2023-04-01T12:20:38;97289.69;;;8.65;47.99
63321;BME280;49449;48.800;9.534;2023-04-01T12:23:24;97285.31;;;7.92;45.91
63321;BME280;49449;48.800;9.534;2023-04-01T12:26:06;97282.03;;;8.02;47.37
63321;BME280;49449;48.800;9.534;2023-04-01T12:28:46;97286.78;;;8.22;46.12
63321;BME280;49449;48.800;9.534;2023-04-01T12:31:30;97290.41;;;8.38;46.82
63321;BME280;49449;48.800;9.534;2023-04-01T12:34:26;97300.75;;;8.84;45.34
63321;BME280;49449;48.800;9.534;2023-04-01T12:37:06;97288.31;;;8.18;45.07
63321;BME280;49449;48.800;9.534;2023-04-01T12:40:01;97295.06;;;8.14;46.85
63321;BME280;49449;48.800;9.534;2023-04-01T12:42:42;97303.22;;;8.73;46.13
63321;BME280;49449;48.800;9.534;2023-04-01T12:45:24;97290.19;;;8.40;46.74
63321;BME280;49449;48.800;9.534;2023-04-01T12:48:29;97298.41;;;8.65;46.51
63321;BME280;49449;48.800;9.534;2023-04-01T12:51:15;97301.69;;;8.55;46.46
63321;BME280;49449;48.800;9.534;2023-04-01T12:56:50;97300.75;;;9.11;46.07
63321;BME280;49449;48.800;9.534;2023-04-01T12:59:44;97303.22;;;9.18;44.69
63321;BME280;49449;48.800;9.534;2023-04-01T13:02:25;97298.44;;;9.15;44.95
63321;BME280;49449;48.800;9.534;2023-04-01T13:05:15;97297.47;;;8.99;45.00
63321;BME280;49449;48.800;9.534;2023-04-01T13:08:17;97297.75;;;9.24;45.13
63321;BME280;49449;48.800;9.534;2023-04-01T13:11:06;97293.75;;;9.49;43.99
63321;BME280;49449;48.800;9.534;2023-04-01T13:14:08;97298.53;;;9.52;44.25
63321;BME280;49449;48.800;9.534;2023-04-01T13:16:54;97298.81;;;9.56;43.34
63321;BME280;49449;48.800;9.534;2023-04-01T13:19:27;97307.41;;;9.14;43.60
63321;BME280;49449;48.800;9.534;2023-04-01T13:22:04;97305.19;;;9.05;42.83
63321;BME280;49449;48.800;9.534;2023-04-01T13:24:43;97308.63;;;9.33;42.90
63321;BME280;49449;48.800;9.534;2023-04-01T13:27:18;97319.25;;;8.89;43.32
63321;BME280;49449;48.800;9.534;2023-04-01T13:30:02;97313.75;;;8.73;43.18
63321;BME280;49449;48.800;9.534;2023-04-01T13:32:37;97311.22;;;9.01;42.05
63321;BME280;49449;48.800;9.534;2023-04-01T13:35:17;97308.81;;;9.26;42.49
63321;BME280;49449;48.800;9.534;2023-04-01T13:37:58;97315.34;;;9.19;42.16
63321;BME280;49449;48.800;9.534;2023-04-01T13:40:38;97321.06;;;8.27;43.36
63321;BME280;49449;48.800;9.534;2023-04-01T13:43:14;97316.19;;;8.75;42.92
63321;BME280;49449;48.800;9.534;2023-04-01T13:46:02;97322.59;;;9.06;42.08
63321;BME280;49449;48.800;9.534;2023-04-01T13:48:46;97322.97;;;8.71;43.06
63321;BME280;49449;48.800;9.534;2023-04-01T13:51:45;97328.28;;;8.98;41.53
63321;BME280;49449;48.800;9.534;2023-04-01T13:57:17;97327.63;;;8.86;42.81
63321;BME280;49449;48.800;9.534;2023-04-01T14:00:00;97335.66;;;8.96;41.45
63321;BME280;49449;48.800;9.534;2023-04-01T14:02:46;97329.97;;;9.04;41.53
63321;BME280;49449;48.800;9.534;2023-04-01T14:05:37;97333.31;;;9.22;41.52
63321;BME280;49449;48.800;9.534;2023-04-01T14:08:17;97320.06;;;9.44;40.96
63321;BME280;49449;48.800;9.534;2023-04-01T14:10:56;97328.94;;;9.33;40.84
63321;BME280;49449;48.800;9.534;2023-04-01T14:13:34;97337.31;;;9.57;40.52
63321;BME280;49449;48.800;9.534;2023-04-01T14:16:36;97339.94;;;9.02;41.41
63321;BME280;49449;48.800;9.534;2023-04-01T14:19:21;97334.53;;;9.14;41.55
63321;BME280;49449;48.800;9.534;2023-04-01T14:21:58;97330.69;;;9.22;41.51
63321;BME280;49449;48.800;9.534;2023-04-01T14:24:40;97332.13;;;9.35;41.65
63321;BME280;49449;48.800;9.534;2023-04-01T14:27:32;97340.13;;;9.45;40.65
63321;BME280;49449;48.800;9.534;2023-04-01T14:33:06;97347.94;;;9.13;41.65
63321;BME280;49449;48.800;9.534;2023-04-01T14:35:46;97348.38;;;9.26;42.02
63321;BME280;49449;48.800;9.534;2023-04-01T14:38:47;97344.03;;;9.42;41.98
63321;BME280;49449;48.800;9.534;2023-04-01T14:41:28;97349.31;;;9.42;41.91
63321;BME280;49449;48.800;9.534;2023-04-01T14:44:18;97341.50;;;9.53;41.95
63321;BME280;49449;48.800;9.534;2023-04-01T14:47:08;97356.28;;;9.54;42.06
63321;BME280;49449;48.800;9.534;2023-04-01T14:49:41;97355.81;;;9.62;41.97
63321;BME280;49449;48.800;9.534;2023-04-01T14:52:13;97361.00;;;9.52;42.04
63321;BME280;49449;48.800;9.534;2023-04-01T14:54:44;97358.13;;;9.53;42.59
63321;BME280;49449;48.800;9.534;2023-04-01T14:57:14;97361.56;;;9.54;42.74
63321;BME280;49449;48.800;9.534;2023-04-01T14:59:47;97363.25;;;9.65;42.57
63321;BME280;49449;48.800;9.534;2023-04-01T15:02:29;97371.34;;;9.31;43.07
63321;BME280;49449;48.800;9.534;2023-04-01T15:05:10;97366.94;;;9.37;43.42
63321;BME280;49449;48.800;9.534;2023-04-01T15:07:55;97369.19;;;9.50;43.65
63321;BME280;49449;48.800;9.534;2023-04-01T15:10:47;97377.28;;;9.43;44.72